sensor_id;sensor_type;location;lat;lon;timestamp;P1;durP1;ratioP1;P2;durP2;ratioP2
21110;SDS011;10713;51.912;4.494;2022-12-04T00:01:06;74.38;;;25.17;;
21110;SDS011;10713;51.912;4.494;2022-12-04T00:03:34;72.50;;;24.98;;
21110;SDS011;10713;51.912;4.494;2022-12-04T00:08:32;65.38;;;25.05;;
21110;SDS011;10713;51.912;4.494;2022-12-04T00:10:58;82.03;;;26.85;;
21110;SDS011;10713;51.912;4.494;2022-12-04T00:13:24;74.28;;;23.48;;
21110;SDS011;10713;51.912;4.494;2022-12-04T00:15:50;67.72;;;22.65;;
21110;SDS011;10713;51.912;4.494;2022-12-04T00:18:15;73.90;;;24.75;;
21110;SDS011;10713;51.912;4.494;2022-12-04T00:20:40;71.97;;;25.35;;
21110;SDS011;10713;51.912;4.494;2022-12-04T00:23:06;69.40;;;24.50;;
21110;SDS011;10713;51.912;4.494;2022-12-04T00:25:31;70.05;;;24.33;;
21110;SDS011;10713;51.912;4.494;2022-12-04T00:27:57;71.50;;;23.58;;
21110;SDS011;10713;51.912;4.494;2022-12-04T00:30:22;58.95;;;19.00;;
21110;SDS011;10713;51.912;4.494;2022-12-04T00:32:48;73.65;;;24.92;;
21110;SDS011;10713;51.912;4.494;2022-12-04T00:35:13;70.32;;;23.38;;
21110;SDS011;10713;51.912;4.494;2022-12-04T00:37:39;73.82;;;25.05;;
21110;SDS011;10713;51.912;4.494;2022-12-04T00:40:04;69.88;;;24.67;;
21110;SDS011;10713;51.912;4.494;2022-12-04T00:42:30;81.50;;;25.45;;
21110;SDS011;10713;51.912;4.494;2022-12-04T00:44:55;71.97;;;24.65;;
21110;SDS011;10713;51.912;4.494;2022-12-04T00:47:21;75.35;;;26.05;;
21110;SDS011;10713;51.912;4.494;2022-12-04T00:49:46;73.13;;;24.85;;
21110;SDS011;10713;51.912;4.494;2022-12-04T00:52:11;76.80;;;26.92;;
21110;SDS011;10713;51.912;4.494;2022-12-04T00:54:37;73.63;;;25.20;;
21110;SDS011;10713;51.912;4.494;2022-12-04T00:57:02;68.38;;;24.20;;
21110;SDS011;10713;51.912;4.494;2022-12-04T00:59:27;80.28;;;26.50;;
21110;SDS011;10713;51.912;4.494;2022-12-04T01:01:53;77.72;;;25.55;;
21110;SDS011;10713;51.912;4.494;2022-12-04T01:04:18;77.38;;;25.10;;
21110;SDS011;10713;51.912;4.494;2022-12-04T01:06:43;72.28;;;24.15;;
21110;SDS011;10713;51.912;4.494;2022-12-04T01:09:10;69.38;;;26.10;;
21110;SDS011;10713;51.912;4.494;2022-12-04T01:11:35;73.15;;;25.23;;
21110;SDS011;10713;51.912;4.494;2022-12-04T01:14:02;68.65;;;24.67;;
21110;SDS011;10713;51.912;4.494;2022-12-04T01:16:29;80.93;;;26.23;;
21110;SDS011;10713;51.912;4.494;2022-12-04T01:18:58;75.13;;;25.80;;
21110;SDS011;10713;51.912;4.494;2022-12-04T01:21:24;62.10;;;23.25;;
21110;SDS011;10713;51.912;4.494;2022-12-04T01:23:51;74.72;;;25.60;;
21110;SDS011;10713;51.912;4.494;2022-12-04T01:26:16;73.25;;;24.52;;
21110;SDS011;10713;51.912;4.494;2022-12-04T01:28:42;74.75;;;25.13;;
21110;SDS011;10713;51.912;4.494;2022-12-04T01:31:11;68.78;;;24.60;;
21110;SDS011;10713;51.912;4.494;2022-12-04T01:33:38;81.80;;;25.38;;
21110;SDS011;10713;51.912;4.494;2022-12-04T01:36:05;76.57;;;26.63;;
21110;SDS011;10713;51.912;4.494;2022-12-04T01:38:33;75.53;;;26.92;;
21110;SDS011;10713;51.912;4.494;2022-12-04T01:40:59;84.90;;;25.13;;
21110;SDS011;10713;51.912;4.494;2022-12-04T01:43:25;70.68;;;25.92;;
21110;SDS011;10713;51.912;4.494;2022-12-04T01:45:53;72.22;;;23.77;;
21110;SDS011;10713;51.912;4.494;2022-12-04T01:48:22;75.32;;;25.83;;
21110;SDS011;10713;51.912;4.494;2022-12-04T01:50:53;70.53;;;25.15;;
21110;SDS011;10713;51.912;4.494;2022-12-04T01:53:22;76.85;;;25.90;;
21110;SDS011;10713;51.912;4.494;2022-12-04T01:55:48;71.38;;;26.45;;
21110;SDS011;10713;51.912;4.494;2022-12-04T01:58:14;81.80;;;28.45;;
21110;SDS011;10713;51.912;4.494;2022-12-04T02:00:45;74.65;;;25.33;;
21110;SDS011;10713;51.912;4.494;2022-12-04T02:03:15;72.75;;;25.63;;
21110;SDS011;10713;51.912;4.494;2022-12-04T02:05:41;75.85;;;25.52;;
21110;SDS011;10713;51.912;4.494;2022-12-04T02:08:06;77.63;;;26.23;;
21110;SDS011;10713;51.912;4.494;2022-12-04T02:16:07;80.18;;;25.52;;
21110;SDS011;10713;51.912;4.494;2022-12-04T02:18:45;81.32;;;27.08;;
21110;SDS011;10713;51.912;4.494;2022-12-04T02:21:25;75.00;;;24.80;;
21110;SDS011;10713;51.912;4.494;2022-12-04T02:30:03;71.53;;;25.50;;
21110;SDS011;10713;51.912;4.494;2022-12-04T02:32:35;77.18;;;26.60;;
21110;SDS011;10713;51.912;4.494;2022-12-04T02:35:20;84.40;;;26.67;;
21110;SDS011;10713;51.912;4.494;2022-12-04T02:38:25;77.18;;;25.58;;
21110;SDS011;10713;51.912;4.494;2022-12-04T02:43:34;76.30;;;26.33;;
21110;SDS011;10713;51.912;4.494;2022-12-04T02:46:10;82.50;;;26.42;;
21110;SDS011;10713;51.912;4.494;2022-12-04T02:48:41;79.50;;;28.17;;
21110;SDS011;10713;51.912;4.494;2022-12-04T02:51:11;75.95;;;26.80;;
21110;SDS011;10713;51.912;4.494;2022-12-04T02:53:43;81.47;;;28.13;;
21110;SDS011;10713;51.912;4.494;2022-12-04T02:56:15;79.90;;;28.73;;
21110;SDS011;10713;51.912;4.494;2022-12-04T02:58:49;85.00;;;28.63;;
21110;SDS011;10713;51.912;4.494;2022-12-04T03:01:16;82.05;;;27.80;;
21110;SDS011;10713;51.912;4.494;2022-12-04T03:03:57;82.20;;;26.85;;
21110;SDS011;10713;51.912;4.494;2022-12-04T03:06:25;79.32;;;27.33;;
21110;SDS011;10713;51.912;4.494;2022-12-04T03:08:55;79.68;;;27.35;;
21110;SDS011;10713;51.912;4.494;2022-12-04T03:11:25;80.20;;;27.52;;
21110;SDS011;10713;51.912;4.494;2022-12-04T03:13:56;79.40;;;27.85;;
21110;SDS011;10713;51.912;4.494;2022-12-04T03:16:28;80.43;;;27.02;;
21110;SDS011;10713;51.912;4.494;2022-12-04T03:19:00;84.88;;;27.67;;
21110;SDS011;10713;51.912;4.494;2022-12-04T03:21:32;78.93;;;27.77;;
21110;SDS011;10713;51.912;4.494;2022-12-04T03:24:12;82.28;;;28.58;;
21110;SDS011;10713;51.912;4.494;2022-12-04T03:26:46;80.40;;;27.55;;
21110;SDS011;10713;51.912;4.494;2022-12-04T03:34:31;74.47;;;26.17;;
21110;SDS011;10713;51.912;4.494;2022-12-04T03:37:04;81.95;;;28.08;;
21110;SDS011;10713;51.912;4.494;2022-12-04T03:39:39;89.68;;;28.05;;
21110;SDS011;10713;51.912;4.494;2022-12-04T03:42:32;80.78;;;28.55;;
21110;SDS011;10713;51.912;4.494;2022-12-04T03:47:45;87.60;;;30.05;;
21110;SDS011;10713;51.912;4.494;2022-12-04T03:50:19;75.10;;;26.73;;
21110;SDS011;10713;51.912;4.494;2022-12-04T03:55:35;83.13;;;27.48;;
21110;SDS011;10713;51.912;4.494;2022-12-04T03:58:10;79.45;;;26.63;;
21110;SDS011;10713;51.912;4.494;2022-12-04T04:00:42;90.93;;;29.23;;
21110;SDS011;10713;51.912;4.494;2022-12-04T04:03:19;87.32;;;28.80;;
21110;SDS011;10713;51.912;4.494;2022-12-04T04:05:50;79.40;;;26.90;;
21110;SDS011;10713;51.912;4.494;2022-12-04T04:08:20;84.20;;;28.60;;
21110;SDS011;10713;51.912;4.494;2022-12-04T04:14:01;77.25;;;26.70;;
21110;SDS011;10713;51.912;4.494;2022-12-04T04:17:01;82.78;;;27.05;;
21110;SDS011;10713;51.912;4.494;2022-12-04T04:19:53;84.88;;;28.77;;
21110;SDS011;10713;51.912;4.494;2022-12-04T04:22:42;83.00;;;28.02;;
21110;SDS011;10713;51.912;4.494;2022-12-04T04:25:31;82.47;;;28.13;;
21110;SDS011;10713;51.912;4.494;2022-12-04T04:28:00;83.05;;;28.58;;
21110;SDS011;10713;51.912;4.494;2022-12-04T04:30:25;87.82;;;29.52;;
21110;SDS011;10713;51.912;4.494;2022-12-04T04:38:07;80.35;;;27.67;;
21110;SDS011;10713;51.912;4.494;2022-12-04T04:40:47;77.85;;;27.45;;
21110;SDS011;10713;51.912;4.494;2022-12-04T04:46:22;68.82;;;26.23;;
21110;SDS011;10713;51.912;4.494;2022-12-04T04:48:55;78.03;;;27.15;;
21110;SDS011;10713;51.912;4.494;2022-12-04T04:51:24;81.35;;;28.98;;
21110;SDS011;10713;51.912;4.494;2022-12-04T04:53:53;78.82;;;27.48;;
21110;SDS011;10713;51.912;4.494;2022-12-04T04:56:22;87.13;;;27.38;;
21110;SDS011;10713;51.912;4.494;2022-12-04T04:58:48;85.53;;;30.33;;
21110;SDS011;10713;51.912;4.494;2022-12-04T05:01:14;78.45;;;25.48;;
21110;SDS011;10713;51.912;4.494;2022-12-04T05:03:41;76.10;;;27.48;;
21110;SDS011;10713;51.912;4.494;2022-12-04T05:06:07;87.97;;;27.75;;
21110;SDS011;10713;51.912;4.494;2022-12-04T05:08:33;90.07;;;29.25;;
21110;SDS011;10713;51.912;4.494;2022-12-04T05:10:59;83.22;;;29.23;;
21110;SDS011;10713;51.912;4.494;2022-12-04T05:13:26;83.25;;;28.80;;
21110;SDS011;10713;51.912;4.494;2022-12-04T05:15:59;83.13;;;28.42;;
21110;SDS011;10713;51.912;4.494;2022-12-04T05:18:29;93.47;;;31.48;;
21110;SDS011;10713;51.912;4.494;2022-12-04T05:20:56;83.72;;;28.60;;
21110;SDS011;10713;51.912;4.494;2022-12-04T05:23:22;82.53;;;27.50;;
21110;SDS011;10713;51.912;4.494;2022-12-04T05:25:48;80.10;;;28.33;;
21110;SDS011;10713;51.912;4.494;2022-12-04T05:28:13;79.55;;;27.40;;
21110;SDS011;10713;51.912;4.494;2022-12-04T05:30:39;82.32;;;28.13;;
21110;SDS011;10713;51.912;4.494;2022-12-04T05:33:04;96.15;;;30.75;;
21110;SDS011;10713;51.912;4.494;2022-12-04T05:35:29;81.53;;;28.60;;
21110;SDS011;10713;51.912;4.494;2022-12-04T05:37:55;90.03;;;29.13;;
21110;SDS011;10713;51.912;4.494;2022-12-04T05:40:20;88.15;;;30.60;;
21110;SDS011;10713;51.912;4.494;2022-12-04T05:42:46;92.20;;;31.40;;
21110;SDS011;10713;51.912;4.494;2022-12-04T05:45:11;75.35;;;27.38;;
21110;SDS011;10713;51.912;4.494;2022-12-04T05:47:37;86.03;;;29.02;;
21110;SDS011;10713;51.912;4.494;2022-12-04T05:50:03;84.47;;;29.95;;
21110;SDS011;10713;51.912;4.494;2022-12-04T05:52:29;85.57;;;27.73;;
21110;SDS011;10713;51.912;4.494;2022-12-04T05:54:55;87.22;;;30.05;;
21110;SDS011;10713;51.912;4.494;2022-12-04T05:57:20;87.63;;;30.20;;
21110;SDS011;10713;51.912;4.494;2022-12-04T05:59:45;84.70;;;30.48;;
21110;SDS011;10713;51.912;4.494;2022-12-04T06:02:10;85.82;;;28.42;;
21110;SDS011;10713;51.912;4.494;2022-12-04T06:04:36;79.28;;;29.30;;
21110;SDS011;10713;51.912;4.494;2022-12-04T06:07:02;87.07;;;28.98;;
21110;SDS011;10713;51.912;4.494;2022-12-04T06:09:27;82.18;;;29.95;;
21110;SDS011;10713;51.912;4.494;2022-12-04T06:11:55;83.72;;;28.65;;
21110;SDS011;10713;51.912;4.494;2022-12-04T06:14:22;87.70;;;29.23;;
21110;SDS011;10713;51.912;4.494;2022-12-04T06:16:47;89.00;;;29.35;;
21110;SDS011;10713;51.912;4.494;2022-12-04T06:19:14;85.03;;;29.30;;
21110;SDS011;10713;51.912;4.494;2022-12-04T06:21:42;85.80;;;29.27;;
21110;SDS011;10713;51.912;4.494;2022-12-04T06:24:16;94.05;;;30.60;;
21110;SDS011;10713;51.912;4.494;2022-12-04T06:26:47;90.75;;;29.25;;
21110;SDS011;10713;51.912;4.494;2022-12-04T06:29:13;89.90;;;30.40;;
21110;SDS011;10713;51.912;4.494;2022-12-04T06:31:39;87.75;;;30.20;;
21110;SDS011;10713;51.912;4.494;2022-12-04T06:34:05;87.82;;;30.58;;
21110;SDS011;10713;51.912;4.494;2022-12-04T06:36:31;89.50;;;29.63;;
21110;SDS011;10713;51.912;4.494;2022-12-04T06:38:56;84.88;;;28.73;;
21110;SDS011;10713;51.912;4.494;2022-12-04T06:41:22;85.38;;;27.52;;
21110;SDS011;10713;51.912;4.494;2022-12-04T06:43:49;80.50;;;28.95;;
21110;SDS011;10713;51.912;4.494;2022-12-04T06:46:17;85.97;;;29.27;;
21110;SDS011;10713;51.912;4.494;2022-12-04T06:48:44;87.45;;;28.40;;
21110;SDS011;10713;51.912;4.494;2022-12-04T06:51:11;89.35;;;29.45;;
21110;SDS011;10713;51.912;4.494;2022-12-04T06:53:42;88.95;;;27.63;;
21110;SDS011;10713;51.912;4.494;2022-12-04T06:56:09;84.72;;;30.60;;
21110;SDS011;10713;51.912;4.494;2022-12-04T06:58:36;80.95;;;28.98;;
21110;SDS011;10713;51.912;4.494;2022-12-04T07:01:06;87.20;;;29.60;;
21110;SDS011;10713;51.912;4.494;2022-12-04T07:03:33;83.03;;;27.92;;
21110;SDS011;10713;51.912;4.494;2022-12-04T07:06:08;77.13;;;26.42;;
21110;SDS011;10713;51.912;4.494;2022-12-04T07:08:37;85.72;;;29.80;;
21110;SDS011;10713;51.912;4.494;2022-12-04T07:11:02;85.45;;;30.45;;
21110;SDS011;10713;51.912;4.494;2022-12-04T07:13:27;85.85;;;28.23;;
21110;SDS011;10713;51.912;4.494;2022-12-04T07:15:53;84.72;;;29.13;;
21110;SDS011;10713;51.912;4.494;2022-12-04T07:18:18;87.47;;;29.83;;
21110;SDS011;10713;51.912;4.494;2022-12-04T07:20:43;80.82;;;27.95;;
21110;SDS011;10713;51.912;4.494;2022-12-04T07:23:09;77.38;;;24.90;;
21110;SDS011;10713;51.912;4.494;2022-12-04T07:25:37;89.63;;;29.75;;
21110;SDS011;10713;51.912;4.494;2022-12-04T07:28:03;85.80;;;29.70;;
21110;SDS011;10713;51.912;4.494;2022-12-04T07:30:29;77.32;;;28.58;;
21110;SDS011;10713;51.912;4.494;2022-12-04T07:32:54;84.13;;;29.42;;
21110;SDS011;10713;51.912;4.494;2022-12-04T07:35:19;85.63;;;28.38;;
21110;SDS011;10713;51.912;4.494;2022-12-04T07:37:45;84.65;;;28.27;;
21110;SDS011;10713;51.912;4.494;2022-12-04T07:40:10;88.78;;;29.05;;
21110;SDS011;10713;51.912;4.494;2022-12-04T07:42:36;88.38;;;29.27;;
21110;SDS011;10713;51.912;4.494;2022-12-04T07:45:01;70.32;;;23.65;;
21110;SDS011;10713;51.912;4.494;2022-12-04T07:47:27;85.70;;;30.67;;
21110;SDS011;10713;51.912;4.494;2022-12-04T07:49:52;91.50;;;30.48;;
21110;SDS011;10713;51.912;4.494;2022-12-04T07:52:17;92.47;;;30.52;;
21110;SDS011;10713;51.912;4.494;2022-12-04T07:54:43;87.07;;;28.65;;
21110;SDS011;10713;51.912;4.494;2022-12-04T07:57:08;86.97;;;29.35;;
21110;SDS011;10713;51.912;4.494;2022-12-04T07:59:34;81.80;;;28.55;;
21110;SDS011;10713;51.912;4.494;2022-12-04T08:01:59;83.95;;;28.10;;
21110;SDS011;10713;51.912;4.494;2022-12-04T08:04:24;73.75;;;25.92;;
21110;SDS011;10713;51.912;4.494;2022-12-04T08:06:50;94.32;;;30.65;;
21110;SDS011;10713;51.912;4.494;2022-12-04T08:09:15;85.13;;;29.10;;
21110;SDS011;10713;51.912;4.494;2022-12-04T08:11:40;85.78;;;29.35;;
21110;SDS011;10713;51.912;4.494;2022-12-04T08:14:06;95.65;;;29.38;;
21110;SDS011;10713;51.912;4.494;2022-12-04T08:16:35;84.20;;;29.17;;
21110;SDS011;10713;51.912;4.494;2022-12-04T08:19:00;82.93;;;28.25;;
21110;SDS011;10713;51.912;4.494;2022-12-04T08:21:27;81.97;;;28.60;;
21110;SDS011;10713;51.912;4.494;2022-12-04T08:23:54;81.10;;;28.42;;
21110;SDS011;10713;51.912;4.494;2022-12-04T08:26:21;84.07;;;27.02;;
21110;SDS011;10713;51.912;4.494;2022-12-04T08:28:51;89.47;;;29.42;;
21110;SDS011;10713;51.912;4.494;2022-12-04T08:31:18;82.95;;;28.58;;
21110;SDS011;10713;51.912;4.494;2022-12-04T08:33:46;83.05;;;28.85;;
21110;SDS011;10713;51.912;4.494;2022-12-04T08:36:13;84.38;;;28.35;;
21110;SDS011;10713;51.912;4.494;2022-12-04T08:38:41;64.50;;;21.08;;
21110;SDS011;10713;51.912;4.494;2022-12-04T08:41:09;72.97;;;26.40;;
21110;SDS011;10713;51.912;4.494;2022-12-04T08:43:36;75.28;;;29.40;;
21110;SDS011;10713;51.912;4.494;2022-12-04T08:46:03;78.85;;;28.30;;
21110;SDS011;10713;51.912;4.494;2022-12-04T08:48:35;81.32;;;25.17;;
21110;SDS011;10713;51.912;4.494;2022-12-04T08:51:01;86.10;;;28.67;;
21110;SDS011;10713;51.912;4.494;2022-12-04T08:53:28;74.75;;;27.13;;
21110;SDS011;10713;51.912;4.494;2022-12-04T08:55:55;71.25;;;25.83;;
21110;SDS011;10713;51.912;4.494;2022-12-04T08:58:21;74.25;;;27.70;;
21110;SDS011;10713;51.912;4.494;2022-12-04T09:00:46;73.32;;;26.08;;
21110;SDS011;10713;51.912;4.494;2022-12-04T09:03:13;84.35;;;27.67;;
21110;SDS011;10713;51.912;4.494;2022-12-04T09:05:40;75.43;;;27.70;;
21110;SDS011;10713;51.912;4.494;2022-12-04T09:08:06;75.00;;;27.98;;
21110;SDS011;10713;51.912;4.494;2022-12-04T09:10:35;86.43;;;29.48;;
21110;SDS011;10713;51.912;4.494;2022-12-04T09:13:01;78.65;;;28.30;;
21110;SDS011;10713;51.912;4.494;2022-12-04T09:15:26;81.63;;;28.13;;
21110;SDS011;10713;51.912;4.494;2022-12-04T09:17:52;84.68;;;28.90;;
21110;SDS011;10713;51.912;4.494;2022-12-04T09:20:17;73.43;;;26.20;;
21110;SDS011;10713;51.912;4.494;2022-12-04T09:22:43;84.97;;;27.60;;
21110;SDS011;10713;51.912;4.494;2022-12-04T09:25:08;68.38;;;24.42;;
21110;SDS011;10713;51.912;4.494;2022-12-04T09:27:35;74.03;;;27.52;;
21110;SDS011;10713;51.912;4.494;2022-12-04T09:30:02;78.13;;;26.88;;
21110;SDS011;10713;51.912;4.494;2022-12-04T09:32:31;73.35;;;25.17;;
21110;SDS011;10713;51.912;4.494;2022-12-04T09:34:56;80.75;;;26.80;;
21110;SDS011;10713;51.912;4.494;2022-12-04T09:37:22;80.50;;;27.48;;
21110;SDS011;10713;51.912;4.494;2022-12-04T09:39:47;65.97;;;24.52;;
21110;SDS011;10713;51.912;4.494;2022-12-04T09:42:28;80.47;;;28.42;;
21110;SDS011;10713;51.912;4.494;2022-12-04T09:47:43;68.57;;;27.08;;
21110;SDS011;10713;51.912;4.494;2022-12-04T09:50:17;77.18;;;27.17;;
21110;SDS011;10713;51.912;4.494;2022-12-04T09:55:16;78.32;;;27.67;;
21110;SDS011;10713;51.912;4.494;2022-12-04T09:57:47;72.53;;;24.55;;
21110;SDS011;10713;51.912;4.494;2022-12-04T10:00:16;71.22;;;25.80;;
21110;SDS011;10713;51.912;4.494;2022-12-04T10:02:50;73.90;;;26.30;;
21110;SDS011;10713;51.912;4.494;2022-12-04T10:05:23;71.72;;;28.15;;
21110;SDS011;10713;51.912;4.494;2022-12-04T10:08:10;77.63;;;26.60;;
21110;SDS011;10713;51.912;4.494;2022-12-04T10:10:47;82.30;;;27.77;;
21110;SDS011;10713;51.912;4.494;2022-12-04T10:18:57;73.53;;;26.73;;
21110;SDS011;10713;51.912;4.494;2022-12-04T10:21:31;74.07;;;24.33;;
21110;SDS011;10713;51.912;4.494;2022-12-04T10:24:10;77.93;;;27.75;;
21110;SDS011;10713;51.912;4.494;2022-12-04T10:26:42;78.47;;;27.83;;
21110;SDS011;10713;51.912;4.494;2022-12-04T10:29:19;75.78;;;26.60;;
21110;SDS011;10713;51.912;4.494;2022-12-04T10:31:48;75.43;;;26.23;;
21110;SDS011;10713;51.912;4.494;2022-12-04T10:34:24;75.28;;;25.83;;
21110;SDS011;10713;51.912;4.494;2022-12-04T10:36:54;73.93;;;26.35;;
21110;SDS011;10713;51.912;4.494;2022-12-04T10:39:23;78.38;;;27.40;;
21110;SDS011;10713;51.912;4.494;2022-12-04T10:42:05;73.80;;;27.45;;
21110;SDS011;10713;51.912;4.494;2022-12-04T10:44:46;67.43;;;23.30;;
21110;SDS011;10713;51.912;4.494;2022-12-04T10:47:11;73.70;;;26.77;;
21110;SDS011;10713;51.912;4.494;2022-12-04T10:49:38;72.78;;;26.08;;
21110;SDS011;10713;51.912;4.494;2022-12-04T10:52:04;71.03;;;23.38;;
21110;SDS011;10713;51.912;4.494;2022-12-04T10:54:31;76.68;;;26.23;;
21110;SDS011;10713;51.912;4.494;2022-12-04T10:57:02;74.40;;;26.25;;
21110;SDS011;10713;51.912;4.494;2022-12-04T10:59:30;67.32;;;24.33;;
21110;SDS011;10713;51.912;4.494;2022-12-04T11:01:59;77.68;;;27.15;;
21110;SDS011;10713;51.912;4.494;2022-12-04T11:04:40;77.93;;;27.50;;
21110;SDS011;10713;51.912;4.494;2022-12-04T11:07:07;73.60;;;25.83;;
21110;SDS011;10713;51.912;4.494;2022-12-04T11:09:40;68.10;;;24.05;;
21110;SDS011;10713;51.912;4.494;2022-12-04T11:12:24;68.63;;;24.20;;
21110;SDS011;10713;51.912;4.494;2022-12-04T11:15:00;67.53;;;23.27;;
21110;SDS011;10713;51.912;4.494;2022-12-04T11:17:25;71.53;;;26.83;;
21110;SDS011;10713;51.912;4.494;2022-12-04T11:19:58;81.38;;;26.63;;
21110;SDS011;10713;51.912;4.494;2022-12-04T11:22:24;72.22;;;26.50;;
21110;SDS011;10713;51.912;4.494;2022-12-04T11:24:51;71.75;;;24.25;;
21110;SDS011;10713;51.912;4.494;2022-12-04T11:27:33;69.93;;;24.00;;
21110;SDS011;10713;51.912;4.494;2022-12-04T11:30:07;63.80;;;23.20;;
21110;SDS011;10713;51.912;4.494;2022-12-04T11:32:37;62.78;;;22.98;;
21110;SDS011;10713;51.912;4.494;2022-12-04T11:35:05;73.13;;;23.45;;
21110;SDS011;10713;51.912;4.494;2022-12-04T11:37:41;68.57;;;24.08;;
21110;SDS011;10713;51.912;4.494;2022-12-04T11:40:16;62.70;;;20.60;;
21110;SDS011;10713;51.912;4.494;2022-12-04T11:43:00;60.60;;;20.15;;
21110;SDS011;10713;51.912;4.494;2022-12-04T11:45:36;56.90;;;19.58;;
21110;SDS011;10713;51.912;4.494;2022-12-04T11:48:03;46.83;;;18.17;;
21110;SDS011;10713;51.912;4.494;2022-12-04T12:04:04;44.25;;;16.05;;
21110;SDS011;10713;51.912;4.494;2022-12-04T12:09:35;54.30;;;18.98;;
21110;SDS011;10713;51.912;4.494;2022-12-04T12:15:10;54.42;;;20.27;;
21110;SDS011;10713;51.912;4.494;2022-12-04T12:18:06;60.60;;;19.58;;
21110;SDS011;10713;51.912;4.494;2022-12-04T12:20:36;58.10;;;20.58;;
21110;SDS011;10713;51.912;4.494;2022-12-04T12:26:13;55.47;;;19.90;;
21110;SDS011;10713;51.912;4.494;2022-12-04T12:33:58;61.42;;;21.35;;
21110;SDS011;10713;51.912;4.494;2022-12-04T12:36:30;60.85;;;22.15;;
21110;SDS011;10713;51.912;4.494;2022-12-04T12:39:02;61.88;;;20.90;;
21110;SDS011;10713;51.912;4.494;2022-12-04T12:41:36;60.78;;;21.20;;
21110;SDS011;10713;51.912;4.494;2022-12-04T12:44:11;64.22;;;21.55;;
21110;SDS011;10713;51.912;4.494;2022-12-04T12:49:17;57.72;;;20.45;;
21110;SDS011;10713;51.912;4.494;2022-12-04T12:51:53;59.58;;;20.77;;
21110;SDS011;10713;51.912;4.494;2022-12-04T13:00:05;56.33;;;19.58;;
21110;SDS011;10713;51.912;4.494;2022-12-04T13:05:30;54.10;;;18.90;;
21110;SDS011;10713;51.912;4.494;2022-12-04T13:10:49;53.70;;;17.23;;
21110;SDS011;10713;51.912;4.494;2022-12-04T13:13:26;50.17;;;18.70;;
21110;SDS011;10713;51.912;4.494;2022-12-04T13:18:42;47.47;;;18.52;;
21110;SDS011;10713;51.912;4.494;2022-12-04T13:23:51;56.40;;;19.13;;
21110;SDS011;10713;51.912;4.494;2022-12-04T13:26:41;48.88;;;19.10;;
21110;SDS011;10713;51.912;4.494;2022-12-04T13:29:29;49.65;;;18.25;;
21110;SDS011;10713;51.912;4.494;2022-12-04T13:41:00;38.70;;;15.88;;
21110;SDS011;10713;51.912;4.494;2022-12-04T13:43:43;41.53;;;16.42;;
21110;SDS011;10713;51.912;4.494;2022-12-04T13:54:19;46.22;;;17.20;;
21110;SDS011;10713;51.912;4.494;2022-12-04T13:56:48;52.03;;;17.30;;
21110;SDS011;10713;51.912;4.494;2022-12-04T13:59:23;48.67;;;18.15;;
21110;SDS011;10713;51.912;4.494;2022-12-04T14:01:59;42.53;;;17.15;;
21110;SDS011;10713;51.912;4.494;2022-12-04T14:06:57;37.00;;;15.95;;
21110;SDS011;10713;51.912;4.494;2022-12-04T14:11:59;45.00;;;17.50;;
21110;SDS011;10713;51.912;4.494;2022-12-04T14:14:41;38.03;;;15.32;;
21110;SDS011;10713;51.912;4.494;2022-12-04T14:17:26;38.72;;;15.93;;
21110;SDS011;10713;51.912;4.494;2022-12-04T14:19:55;38.65;;;14.43;;
21110;SDS011;10713;51.912;4.494;2022-12-04T14:22:38;38.30;;;16.45;;
21110;SDS011;10713;51.912;4.494;2022-12-04T14:30:23;41.67;;;16.45;;
21110;SDS011;10713;51.912;4.494;2022-12-04T14:33:16;38.63;;;14.90;;
21110;SDS011;10713;51.912;4.494;2022-12-04T14:35:48;38.45;;;15.85;;
21110;SDS011;10713;51.912;4.494;2022-12-04T14:38:20;40.60;;;16.00;;
21110;SDS011;10713;51.912;4.494;2022-12-04T14:40:47;37.00;;;15.80;;
21110;SDS011;10713;51.912;4.494;2022-12-04T14:43:15;42.47;;;16.92;;
21110;SDS011;10713;51.912;4.494;2022-12-04T14:45:49;36.42;;;15.40;;
21110;SDS011;10713;51.912;4.494;2022-12-04T14:56:20;33.75;;;14.93;;
21110;SDS011;10713;51.912;4.494;2022-12-04T14:58:56;40.90;;;16.58;;
21110;SDS011;10713;51.912;4.494;2022-12-04T15:01:26;34.92;;;15.55;;
21110;SDS011;10713;51.912;4.494;2022-12-04T15:03:59;40.10;;;15.70;;
21110;SDS011;10713;51.912;4.494;2022-12-04T15:06:36;33.80;;;15.40;;
21110;SDS011;10713;51.912;4.494;2022-12-04T15:09:03;34.47;;;15.70;;
21110;SDS011;10713;51.912;4.494;2022-12-04T15:11:56;40.63;;;15.95;;
21110;SDS011;10713;51.912;4.494;2022-12-04T15:14:41;36.40;;;16.30;;
21110;SDS011;10713;51.912;4.494;2022-12-04T15:17:08;38.47;;;15.23;;
21110;SDS011;10713;51.912;4.494;2022-12-04T15:19:35;35.33;;;14.77;;
21110;SDS011;10713;51.912;4.494;2022-12-04T15:22:01;38.20;;;16.70;;
21110;SDS011;10713;51.912;4.494;2022-12-04T15:24:28;40.03;;;16.27;;
21110;SDS011;10713;51.912;4.494;2022-12-04T15:26:54;40.90;;;17.92;;
21110;SDS011;10713;51.912;4.494;2022-12-04T15:29:20;39.17;;;15.70;;
21110;SDS011;10713;51.912;4.494;2022-12-04T15:31:50;39.92;;;16.42;;
21110;SDS011;10713;51.912;4.494;2022-12-04T15:34:32;40.85;;;16.30;;
21110;SDS011;10713;51.912;4.494;2022-12-04T15:37:05;42.67;;;16.65;;
21110;SDS011;10713;51.912;4.494;2022-12-04T15:39:37;37.33;;;16.77;;
21110;SDS011;10713;51.912;4.494;2022-12-04T15:42:04;35.70;;;16.67;;
21110;SDS011;10713;51.912;4.494;2022-12-04T15:44:32;37.13;;;16.58;;
21110;SDS011;10713;51.912;4.494;2022-12-04T15:47:02;34.55;;;14.73;;
21110;SDS011;10713;51.912;4.494;2022-12-04T15:49:40;30.65;;;12.73;;
21110;SDS011;10713;51.912;4.494;2022-12-04T15:54:34;36.15;;;14.50;;
21110;SDS011;10713;51.912;4.494;2022-12-04T15:57:06;29.02;;;13.45;;
21110;SDS011;10713;51.912;4.494;2022-12-04T15:59:48;35.47;;;14.85;;
21110;SDS011;10713;51.912;4.494;2022-12-04T16:02:23;39.42;;;15.27;;
21110;SDS011;10713;51.912;4.494;2022-12-04T16:04:52;40.13;;;15.23;;
21110;SDS011;10713;51.912;4.494;2022-12-04T16:07:18;37.05;;;15.98;;
21110;SDS011;10713;51.912;4.494;2022-12-04T16:09:51;36.13;;;15.00;;
21110;SDS011;10713;51.912;4.494;2022-12-04T16:12:21;33.60;;;14.63;;
21110;SDS011;10713;51.912;4.494;2022-12-04T16:14:50;23.23;;;10.65;;
21110;SDS011;10713;51.912;4.494;2022-12-04T16:17:17;35.38;;;15.20;;
21110;SDS011;10713;51.912;4.494;2022-12-04T16:19:43;39.58;;;15.30;;
21110;SDS011;10713;51.912;4.494;2022-12-04T16:22:12;38.03;;;16.10;;
21110;SDS011;10713;51.912;4.494;2022-12-04T16:24:40;38.75;;;16.92;;
21110;SDS011;10713;51.912;4.494;2022-12-04T16:27:10;40.92;;;16.08;;
21110;SDS011;10713;51.912;4.494;2022-12-04T16:29:37;41.15;;;17.17;;
21110;SDS011;10713;51.912;4.494;2022-12-04T16:32:03;42.35;;;17.23;;
21110;SDS011;10713;51.912;4.494;2022-12-04T16:34:28;28.15;;;11.30;;
21110;SDS011;10713;51.912;4.494;2022-12-04T16:36:54;21.55;;;9.07;;
21110;SDS011;10713;51.912;4.494;2022-12-04T16:39:19;36.80;;;16.77;;
21110;SDS011;10713;51.912;4.494;2022-12-04T16:41:45;41.67;;;16.33;;
21110;SDS011;10713;51.912;4.494;2022-12-04T16:44:12;45.63;;;18.17;;
21110;SDS011;10713;51.912;4.494;2022-12-04T16:46:39;39.83;;;17.95;;
21110;SDS011;10713;51.912;4.494;2022-12-04T16:49:04;48.28;;;18.35;;
21110;SDS011;10713;51.912;4.494;2022-12-04T16:51:29;39.58;;;17.88;;